Sandston, Virginia
Current Conditions -  °F | °C
As of 5:54 PM on Monday 22 Dec 2014 (Local Time) from KRIC Reporting Station
Light Rain Light Rain  
Wind Chill: 30°   Ceiling: 500
Heat Index: 38°   Visibility: 3mi
Dew Point: 35°   Wind: 12mph
Humidity: 89%   Direction: 350°N
Pressure: 30.1"   Gusts: NA
Location:  37.52°N, 77.32°W
Report Text: KRIC 222254Z 35010KT 3SM -RA BR OVC005 03/02 A3010 RMK AO2 SLP199 P0001 T00330017
Loading
Personal Weather Stations






























Interactive Weather Map New forecast layout! Learn more

10-Day Weather Forecast

Advertisements
Track Severe Weather on mobile